sensor_id;sensor_type;location;lat;lon;timestamp;pressure;altitude;pressure_sealevel;temperature;humidity
22649;BME280;11491;41.942;24.220;2023-05-20T00:00:44;90263.38;;;9.05;88.96
22649;BME280;11491;41.942;24.220;2023-05-20T00:03:12;90271.84;;;9.07;89.46
22649;BME280;11491;41.942;24.220;2023-05-20T00:05:39;90259.72;;;8.89;89.99
22649;BME280;11491;41.942;24.220;2023-05-20T00:08:07;90262.84;;;8.91;89.80
22649;BME280;11491;41.942;24.220;2023-05-20T00:10:35;90261.69;;;9.00;87.31
22649;BME280;11491;41.942;24.220;2023-05-20T00:13:02;90272.41;;;8.92;88.08
22649;BME280;11491;41.942;24.220;2023-05-20T00:15:29;90261.94;;;8.87;88.88
22649;BME280;11491;41.942;24.220;2023-05-20T00:17:56;90269.09;;;8.95;88.56
22649;BME280;11491;41.942;24.220;2023-05-20T00:20:23;90264.41;;;8.92;88.42
22649;BME280;11491;41.942;24.220;2023-05-20T00:22:49;90261.69;;;8.79;88.87
22649;BME280;11491;41.942;24.220;2023-05-20T00:25:18;90253.50;;;8.84;89.79
22649;BME280;11491;41.942;24.220;2023-05-20T00:27:44;90252.19;;;8.91;88.08
22649;BME280;11491;41.942;24.220;2023-05-20T00:30:11;90249.41;;;8.87;88.13
22649;BME280;11491;41.942;24.220;2023-05-20T00:32:38;90243.47;;;8.81;87.64
22649;BME280;11491;41.942;24.220;2023-05-20T00:35:06;90246.97;;;8.73;88.54
22649;BME280;11491;41.942;24.220;2023-05-20T00:37:33;90254.38;;;8.68;88.77
22649;BME280;11491;41.942;24.220;2023-05-20T00:40:00;90247.34;;;8.63;88.65
22649;BME280;11491;41.942;24.220;2023-05-20T00:42:29;90252.47;;;8.47;89.55
22649;BME280;11491;41.942;24.220;2023-05-20T00:44:56;90254.31;;;8.47;89.51
22649;BME280;11491;41.942;24.220;2023-05-20T00:47:26;90237.72;;;8.50;88.68
22649;BME280;11491;41.942;24.220;2023-05-20T00:49:54;90229.25;;;8.48;89.01
22649;BME280;11491;41.942;24.220;2023-05-20T00:52:22;90230.81;;;8.49;88.58
22649;BME280;11491;41.942;24.220;2023-05-20T00:54:50;90228.19;;;8.40;88.92
22649;BME280;11491;41.942;24.220;2023-05-20T00:57:18;90223.97;;;8.30;89.88
22649;BME280;11491;41.942;24.220;2023-05-20T00:59:46;90226.66;;;8.30;90.47
22649;BME280;11491;41.942;24.220;2023-05-20T01:02:14;90215.47;;;8.37;90.43
22649;BME280;11491;41.942;24.220;2023-05-20T01:04:41;90221.13;;;8.35;89.29
22649;BME280;11491;41.942;24.220;2023-05-20T01:07:12;90223.66;;;8.40;88.43
22649;BME280;11491;41.942;24.220;2023-05-20T01:09:40;90223.47;;;8.37;88.78
22649;BME280;11491;41.942;24.220;2023-05-20T01:12:11;90216.78;;;8.22;89.25
22649;BME280;11491;41.942;24.220;2023-05-20T01:14:44;90224.00;;;8.22;89.34
22649;BME280;11491;41.942;24.220;2023-05-20T01:17:14;90224.97;;;8.17;88.62
22649;BME280;11491;41.942;24.220;2023-05-20T01:19:43;90223.06;;;8.26;88.67
22649;BME280;11491;41.942;24.220;2023-05-20T01:22:11;90224.88;;;8.34;87.65
22649;BME280;11491;41.942;24.220;2023-05-20T01:24:41;90211.75;;;8.29;87.47
22649;BME280;11491;41.942;24.220;2023-05-20T01:27:08;90225.25;;;8.24;87.66
22649;BME280;11491;41.942;24.220;2023-05-20T01:29:37;90223.41;;;8.16;88.37
22649;BME280;11491;41.942;24.220;2023-05-20T01:32:06;90215.75;;;8.14;88.61
22649;BME280;11491;41.942;24.220;2023-05-20T01:34:35;90221.88;;;8.15;88.14
22649;BME280;11491;41.942;24.220;2023-05-20T01:37:03;90221.88;;;8.15;87.35
22649;BME280;11491;41.942;24.220;2023-05-20T01:39:31;90214.97;;;8.14;87.24
22649;BME280;11491;41.942;24.220;2023-05-20T01:42:01;90212.47;;;8.09;86.68
22649;BME280;11491;41.942;24.220;2023-05-20T01:44:29;90219.34;;;8.10;86.58
22649;BME280;11491;41.942;24.220;2023-05-20T01:46:56;90213.78;;;8.03;87.39
22649;BME280;11491;41.942;24.220;2023-05-20T01:49:23;90209.72;;;7.96;87.27
22649;BME280;11491;41.942;24.220;2023-05-20T01:51:49;90212.84;;;7.98;87.57
22649;BME280;11491;41.942;24.220;2023-05-20T01:54:16;90199.47;;;7.69;89.29
22649;BME280;11491;41.942;24.220;2023-05-20T01:56:44;90206.88;;;7.63;90.62
22649;BME280;11491;41.942;24.220;2023-05-20T01:59:12;90206.03;;;7.80;90.25
22649;BME280;11491;41.942;24.220;2023-05-20T02:01:39;90206.66;;;7.77;89.32
22649;BME280;11491;41.942;24.220;2023-05-20T02:04:06;90203.19;;;7.85;88.61
22649;BME280;11491;41.942;24.220;2023-05-20T02:06:32;90211.63;;;7.87;88.86
22649;BME280;11491;41.942;24.220;2023-05-20T02:08:59;90206.47;;;7.91;88.64
22649;BME280;11491;41.942;24.220;2023-05-20T02:11:26;90200.19;;;7.95;87.22
22649;BME280;11491;41.942;24.220;2023-05-20T02:13:53;90198.94;;;7.84;87.47
22649;BME280;11491;41.942;24.220;2023-05-20T02:16:21;90200.91;;;7.66;88.79
22649;BME280;11491;41.942;24.220;2023-05-20T02:18:48;90198.72;;;7.60;89.41
22649;BME280;11491;41.942;24.220;2023-05-20T02:21:15;90206.69;;;7.68;88.94
22649;BME280;11491;41.942;24.220;2023-05-20T02:23:42;90200.91;;;7.58;89.06
22649;BME280;11491;41.942;24.220;2023-05-20T02:26:09;90206.53;;;7.65;88.77
22649;BME280;11491;41.942;24.220;2023-05-20T02:28:36;90204.66;;;7.65;87.65
22649;BME280;11491;41.942;24.220;2023-05-20T02:31:04;90194.50;;;7.59;88.61
22649;BME280;11491;41.942;24.220;2023-05-20T02:33:33;90206.56;;;7.56;88.97
22649;BME280;11491;41.942;24.220;2023-05-20T02:35:59;90199.41;;;7.48;89.28
22649;BME280;11491;41.942;24.220;2023-05-20T02:38:26;90203.59;;;7.49;88.91
22649;BME280;11491;41.942;24.220;2023-05-20T02:40:54;90210.94;;;7.52;88.28
22649;BME280;11491;41.942;24.220;2023-05-20T02:43:23;90214.84;;;7.54;88.76
22649;BME280;11491;41.942;24.220;2023-05-20T02:45:50;90213.47;;;7.48;88.80
22649;BME280;11491;41.942;24.220;2023-05-20T02:48:16;90205.78;;;7.55;87.28
22649;BME280;11491;41.942;24.220;2023-05-20T02:50:45;90206.69;;;7.60;87.15
22649;BME280;11491;41.942;24.220;2023-05-20T02:53:11;90214.56;;;7.47;87.08
22649;BME280;11491;41.942;24.220;2023-05-20T02:55:39;90208.31;;;7.43;87.85
22649;BME280;11491;41.942;24.220;2023-05-20T02:58:05;90203.97;;;7.12;89.20
22649;BME280;11491;41.942;24.220;2023-05-20T03:00:32;90208.19;;;7.31;88.71
22649;BME280;11491;41.942;24.220;2023-05-20T03:03:04;90207.25;;;7.36;88.33
22649;BME280;11491;41.942;24.220;2023-05-20T03:05:32;90204.72;;;7.39;87.72
22649;BME280;11491;41.942;24.220;2023-05-20T03:08:03;90204.59;;;7.27;88.39
22649;BME280;11491;41.942;24.220;2023-05-20T03:10:30;90210.22;;;7.17;89.20
22649;BME280;11491;41.942;24.220;2023-05-20T03:12:56;90199.31;;;6.92;90.70
22649;BME280;11491;41.942;24.220;2023-05-20T03:15:23;90183.69;;;6.82;90.65
22649;BME280;11491;41.942;24.220;2023-05-20T03:17:50;90195.56;;;7.10;89.22
22649;BME280;11491;41.942;24.220;2023-05-20T03:20:17;90198.03;;;7.16;89.13
22649;BME280;11491;41.942;24.220;2023-05-20T03:22:44;90207.25;;;7.09;90.00
22649;BME280;11491;41.942;24.220;2023-05-20T03:25:12;90198.03;;;7.16;90.36
22649;BME280;11491;41.942;24.220;2023-05-20T03:27:39;90204.59;;;7.27;89.24
22649;BME280;11491;41.942;24.220;2023-05-20T03:30:07;90208.19;;;7.31;88.48
22649;BME280;11491;41.942;24.220;2023-05-20T03:32:34;90208.66;;;7.33;88.80
22649;BME280;11491;41.942;24.220;2023-05-20T03:35:01;90206.31;;;7.31;88.93
22649;BME280;11491;41.942;24.220;2023-05-20T03:37:28;90203.63;;;7.23;89.31
22649;BME280;11491;41.942;24.220;2023-05-20T03:39:55;90202.56;;;7.15;90.93
22649;BME280;11491;41.942;24.220;2023-05-20T03:42:23;90204.59;;;7.27;90.00
22649;BME280;11491;41.942;24.220;2023-05-20T03:44:50;90203.94;;;7.30;90.21
22649;BME280;11491;41.942;24.220;2023-05-20T03:47:17;90207.06;;;7.32;90.55
22649;BME280;11491;41.942;24.220;2023-05-20T03:49:43;90206.78;;;7.25;91.29
22649;BME280;11491;41.942;24.220;2023-05-20T03:52:10;90210.69;;;7.27;92.34
22649;BME280;11491;41.942;24.220;2023-05-20T03:54:37;90210.34;;;7.38;92.04
22649;BME280;11491;41.942;24.220;2023-05-20T03:57:04;90216.16;;;7.31;91.86
22649;BME280;11491;41.942;24.220;2023-05-20T03:59:32;90225.66;;;7.49;91.17
22649;BME280;11491;41.942;24.220;2023-05-20T04:01:59;90215.97;;;7.53;90.57
22649;BME280;11491;41.942;24.220;2023-05-20T04:04:25;90213.91;;;7.68;90.51
22649;BME280;11491;41.942;24.220;2023-05-20T04:06:52;90218.22;;;7.81;90.84
22649;BME280;11491;41.942;24.220;2023-05-20T04:09:20;90209.06;;;7.99;89.63
22649;BME280;11491;41.942;24.220;2023-05-20T04:11:47;90216.25;;;8.08;88.72
22649;BME280;11491;41.942;24.220;2023-05-20T04:14:14;90210.66;;;8.01;89.05
22649;BME280;11491;41.942;24.220;2023-05-20T04:16:42;90221.75;;;8.03;90.08
22649;BME280;11491;41.942;24.220;2023-05-20T04:19:09;90219.66;;;8.17;90.01
22649;BME280;11491;41.942;24.220;2023-05-20T04:21:36;90230.44;;;8.20;90.10
22649;BME280;11491;41.942;24.220;2023-05-20T04:24:03;90230.88;;;8.31;90.12
22649;BME280;11491;41.942;24.220;2023-05-20T04:26:30;90227.13;;;8.32;89.05
22649;BME280;11491;41.942;24.220;2023-05-20T04:28:58;90234.94;;;8.37;88.71
22649;BME280;11491;41.942;24.220;2023-05-20T04:31:26;90234.59;;;8.48;87.49
22649;BME280;11491;41.942;24.220;2023-05-20T04:33:54;90235.28;;;8.57;87.46
22649;BME280;11491;41.942;24.220;2023-05-20T04:36:21;90235.56;;;8.64;87.29
22649;BME280;11491;41.942;24.220;2023-05-20T04:38:52;90235.38;;;8.69;86.28
22649;BME280;11491;41.942;24.220;2023-05-20T04:41:19;90233.63;;;8.73;87.12
22649;BME280;11491;41.942;24.220;2023-05-20T04:43:46;90223.81;;;8.65;88.85
22649;BME280;11491;41.942;24.220;2023-05-20T04:46:14;90226.84;;;8.84;90.07
22649;BME280;11491;41.942;24.220;2023-05-20T04:48:41;90237.50;;;9.05;90.27
22649;BME280;11491;41.942;24.220;2023-05-20T04:51:09;90248.03;;;9.23;90.23
22649;BME280;11491;41.942;24.220;2023-05-20T04:53:36;90246.84;;;9.33;91.13
22649;BME280;11491;41.942;24.220;2023-05-20T04:56:03;90246.34;;;9.39;89.74
22649;BME280;11491;41.942;24.220;2023-05-20T04:58:30;90249.56;;;9.45;88.55
22649;BME280;11491;41.942;24.220;2023-05-20T05:00:57;90245.06;;;9.58;87.71
22649;BME280;11491;41.942;24.220;2023-05-20T05:03:25;90240.75;;;9.65;87.70
22649;BME280;11491;41.942;24.220;2023-05-20T05:05:54;90243.41;;;9.65;87.92
22649;BME280;11491;41.942;24.220;2023-05-20T05:08:23;90212.63;;;9.35;88.70
22649;BME280;11491;41.942;24.220;2023-05-20T05:10:50;90161.53;;;8.91;90.24
22649;BME280;11491;41.942;24.220;2023-05-20T05:13:17;90185.19;;;9.13;90.44
22649;BME280;11491;41.942;24.220;2023-05-20T05:15:44;90232.47;;;9.58;91.25
22649;BME280;11491;41.942;24.220;2023-05-20T05:18:11;90187.31;;;9.53;90.14
22649;BME280;11491;41.942;24.220;2023-05-20T05:20:38;90181.56;;;9.63;90.17
22649;BME280;11491;41.942;24.220;2023-05-20T05:23:04;90234.44;;;10.28;89.79
22649;BME280;11491;41.942;24.220;2023-05-20T05:25:33;90223.94;;;10.23;90.30
22649;BME280;11491;41.942;24.220;2023-05-20T05:27:59;90219.28;;;10.20;91.23
22649;BME280;11491;41.942;24.220;2023-05-20T05:30:26;90217.75;;;10.43;91.77
22649;BME280;11491;41.942;24.220;2023-05-20T05:32:53;90217.50;;;10.61;89.57
22649;BME280;11491;41.942;24.220;2023-05-20T05:35:20;90214.56;;;10.90;90.00
22649;BME280;11491;41.942;24.220;2023-05-20T05:37:47;90215.81;;;11.33;88.85
22649;BME280;11491;41.942;24.220;2023-05-20T05:40:13;90217.22;;;11.71;87.46
22649;BME280;11491;41.942;24.220;2023-05-20T05:42:41;90208.41;;;11.99;85.30
22649;BME280;11491;41.942;24.220;2023-05-20T05:45:09;90208.44;;;12.31;83.59
22649;BME280;11491;41.942;24.220;2023-05-20T05:47:36;90215.16;;;12.56;83.28
22649;BME280;11491;41.942;24.220;2023-05-20T05:50:03;90213.25;;;12.73;83.92
22649;BME280;11491;41.942;24.220;2023-05-20T05:52:30;90208.44;;;12.98;82.95
22649;BME280;11491;41.942;24.220;2023-05-20T05:54:57;90213.31;;;13.11;82.67
22649;BME280;11491;41.942;24.220;2023-05-20T05:57:23;90215.91;;;13.24;80.00
22649;BME280;11491;41.942;24.220;2023-05-20T05:59:51;90202.53;;;13.43;79.21
22649;BME280;11491;41.942;24.220;2023-05-20T06:02:18;90213.97;;;13.60;76.34
22649;BME280;11491;41.942;24.220;2023-05-20T06:04:45;90212.28;;;13.71;73.54
22649;BME280;11491;41.942;24.220;2023-05-20T06:07:12;90204.91;;;13.87;71.27
22649;BME280;11491;41.942;24.220;2023-05-20T06:09:38;90210.75;;;14.12;69.91
22649;BME280;11491;41.942;24.220;2023-05-20T06:12:06;90204.94;;;14.33;69.98
22649;BME280;11491;41.942;24.220;2023-05-20T06:14:33;90201.53;;;14.56;72.01
22649;BME280;11491;41.942;24.220;2023-05-20T06:17:01;90197.19;;;14.74;69.39
22649;BME280;11491;41.942;24.220;2023-05-20T06:19:27;90197.41;;;14.89;68.64
22649;BME280;11491;41.942;24.220;2023-05-20T06:21:55;90198.28;;;14.96;68.43
22649;BME280;11491;41.942;24.220;2023-05-20T06:24:22;90197.47;;;15.19;68.79
22649;BME280;11491;41.942;24.220;2023-05-20T06:26:48;90192.06;;;15.49;68.85
22649;BME280;11491;41.942;24.220;2023-05-20T06:29:16;90180.44;;;15.71;66.59
22649;BME280;11491;41.942;24.220;2023-05-20T06:31:43;90173.72;;;15.92;67.68
22649;BME280;11491;41.942;24.220;2023-05-20T06:34:11;90167.41;;;16.14;65.98
22649;BME280;11491;41.942;24.220;2023-05-20T06:36:38;90175.31;;;16.34;65.51
22649;BME280;11491;41.942;24.220;2023-05-20T06:39:04;90176.97;;;16.49;63.86
22649;BME280;11491;41.942;24.220;2023-05-20T06:41:36;90168.66;;;16.69;63.89
22649;BME280;11491;41.942;24.220;2023-05-20T06:44:04;90167.19;;;16.75;60.57
22649;BME280;11491;41.942;24.220;2023-05-20T06:46:31;90167.06;;;16.61;58.38
22649;BME280;11491;41.942;24.220;2023-05-20T06:48:58;90146.59;;;16.56;58.48
22649;BME280;11491;41.942;24.220;2023-05-20T06:51:26;90150.56;;;16.25;57.69
22649;BME280;11491;41.942;24.220;2023-05-20T06:53:53;90148.34;;;15.93;59.11
22649;BME280;11491;41.942;24.220;2023-05-20T06:56:19;90166.38;;;15.89;59.83
22649;BME280;11491;41.942;24.220;2023-05-20T06:58:46;90166.50;;;16.00;61.22
22649;BME280;11491;41.942;24.220;2023-05-20T07:01:13;90171.94;;;16.03;61.32
22649;BME280;11491;41.942;24.220;2023-05-20T07:03:40;90174.38;;;16.15;61.02
22649;BME280;11491;41.942;24.220;2023-05-20T07:06:08;90177.78;;;16.53;62.78
22649;BME280;11491;41.942;24.220;2023-05-20T07:08:36;90173.84;;;16.40;60.26
22649;BME280;11491;41.942;24.220;2023-05-20T07:11:03;90173.84;;;16.40;59.01
22649;BME280;11491;41.942;24.220;2023-05-20T07:13:30;90171.47;;;16.35;59.07
22649;BME280;11491;41.942;24.220;2023-05-20T07:15:56;90145.97;;;16.29;58.73
22649;BME280;11491;41.942;24.220;2023-05-20T07:18:23;90168.84;;;16.42;58.07
22649;BME280;11491;41.942;24.220;2023-05-20T07:20:50;90167.38;;;16.11;61.03
22649;BME280;11491;41.942;24.220;2023-05-20T07:23:17;90167.97;;;16.31;63.06
22649;BME280;11491;41.942;24.220;2023-05-20T07:25:45;90174.59;;;16.41;61.28
22649;BME280;11491;41.942;24.220;2023-05-20T07:28:14;90178.47;;;16.43;58.44
22649;BME280;11491;41.942;24.220;2023-05-20T07:30:42;90180.09;;;16.51;59.40
22649;BME280;11491;41.942;24.220;2023-05-20T07:33:10;90172.16;;;16.73;56.14
22649;BME280;11491;41.942;24.220;2023-05-20T07:35:37;90157.09;;;16.68;56.36
22649;BME280;11491;41.942;24.220;2023-05-20T07:38:04;90170.22;;;16.70;56.80
22649;BME280;11491;41.942;24.220;2023-05-20T07:40:31;90180.38;;;16.80;58.19
22649;BME280;11491;41.942;24.220;2023-05-20T07:42:59;90174.66;;;16.92;58.21
22649;BME280;11491;41.942;24.220;2023-05-20T07:45:26;90178.19;;;17.04;59.61
22649;BME280;11491;41.942;24.220;2023-05-20T07:47:52;90170.50;;;17.06;60.70
22649;BME280;11491;41.942;24.220;2023-05-20T07:50:19;90169.13;;;17.33;61.35
22649;BME280;11491;41.942;24.220;2023-05-20T07:52:46;90164.66;;;17.73;62.51
22649;BME280;11491;41.942;24.220;2023-05-20T07:55:13;90162.13;;;18.09;60.00
22649;BME280;11491;41.942;24.220;2023-05-20T07:57:40;90173.41;;;18.47;58.87
22649;BME280;11491;41.942;24.220;2023-05-20T08:00:09;90169.50;;;18.19;54.49
22649;BME280;11491;41.942;24.220;2023-05-20T08:02:37;90178.03;;;18.43;58.60
22649;BME280;11491;41.942;24.220;2023-05-20T08:05:05;90168.00;;;18.47;53.69
22649;BME280;11491;41.942;24.220;2023-05-20T08:07:33;90174.94;;;18.34;51.81
22649;BME280;11491;41.942;24.220;2023-05-20T08:10:00;90175.31;;;18.43;52.74
22649;BME280;11491;41.942;24.220;2023-05-20T08:12:26;90180.38;;;18.62;53.68
22649;BME280;11491;41.942;24.220;2023-05-20T08:14:53;90180.41;;;18.80;49.68
22649;BME280;11491;41.942;24.220;2023-05-20T08:17:21;90177.31;;;18.64;52.23
22649;BME280;11491;41.942;24.220;2023-05-20T08:19:48;90166.84;;;18.55;52.50
22649;BME280;11491;41.942;24.220;2023-05-20T08:22:15;90164.91;;;18.45;46.39
22649;BME280;11491;41.942;24.220;2023-05-20T08:24:42;90162.56;;;18.33;51.43
22649;BME280;11491;41.942;24.220;2023-05-20T08:27:08;90163.00;;;18.63;55.76
22649;BME280;11491;41.942;24.220;2023-05-20T08:29:35;90132.41;;;18.52;46.28
22649;BME280;11491;41.942;24.220;2023-05-20T08:32:02;90166.84;;;18.44;47.86
22649;BME280;11491;41.942;24.220;2023-05-20T08:34:30;90150.59;;;18.44;51.82
22649;BME280;11491;41.942;24.220;2023-05-20T08:36:57;90155.63;;;18.64;55.29
22649;BME280;11491;41.942;24.220;2023-05-20T08:39:24;90151.00;;;18.93;53.02
22649;BME280;11491;41.942;24.220;2023-05-20T08:41:51;90153.31;;;18.55;51.78
22649;BME280;11491;41.942;24.220;2023-05-20T08:44:18;90155.63;;;18.60;50.56
22649;BME280;11491;41.942;24.220;2023-05-20T08:46:47;90163.03;;;18.81;52.44
22649;BME280;11491;41.942;24.220;2023-05-20T08:49:14;90154.88;;;18.78;52.23
22649;BME280;11491;41.942;24.220;2023-05-20T08:51:42;90164.94;;;18.95;51.56
22649;BME280;11491;41.942;24.220;2023-05-20T08:54:11;90161.84;;;19.00;50.50
22649;BME280;11491;41.942;24.220;2023-05-20T08:56:39;90163.41;;;19.15;51.73
22649;BME280;11491;41.942;24.220;2023-05-20T08:59:07;90169.19;;;19.00;50.88
22649;BME280;11491;41.942;24.220;2023-05-20T09:01:39;90161.88;;;18.79;50.00
22649;BME280;11491;41.942;24.220;2023-05-20T09:04:07;90160.31;;;18.78;51.20
22649;BME280;11491;41.942;24.220;2023-05-20T09:06:43;90167.22;;;18.50;52.23
22649;BME280;11491;41.942;24.220;2023-05-20T09:09:10;90158.75;;;18.84;53.34
22649;BME280;11491;41.942;24.220;2023-05-20T09:11:38;90152.16;;;19.13;47.40
22649;BME280;11491;41.942;24.220;2023-05-20T09:14:05;90134.66;;;19.47;49.21
22649;BME280;11491;41.942;24.220;2023-05-20T09:16:32;90142.75;;;19.72;48.86
22649;BME280;11491;41.942;24.220;2023-05-20T09:18:58;90149.34;;;19.67;47.53
22649;BME280;11491;41.942;24.220;2023-05-20T09:21:26;90150.88;;;19.57;51.21
22649;BME280;11491;41.942;24.220;2023-05-20T09:23:54;90160.28;;;19.28;50.93
22649;BME280;11491;41.942;24.220;2023-05-20T09:26:26;90139.41;;;19.03;49.98
22649;BME280;11491;41.942;24.220;2023-05-20T09:28:54;90156.41;;;19.00;51.63
22649;BME280;11491;41.942;24.220;2023-05-20T09:31:25;90141.75;;;18.76;50.93
22649;BME280;11491;41.942;24.220;2023-05-20T09:33:51;90135.94;;;18.92;53.98
22649;BME280;11491;41.942;24.220;2023-05-20T09:36:19;90152.91;;;19.10;51.63
22649;BME280;11491;41.942;24.220;2023-05-20T09:38:50;90142.81;;;19.50;51.80
22649;BME280;11491;41.942;24.220;2023-05-20T09:41:19;90134.50;;;19.97;52.02
22649;BME280;11491;41.942;24.220;2023-05-20T09:43:49;90139.16;;;19.96;51.58
22649;BME280;11491;41.942;24.220;2023-05-20T09:46:16;90135.88;;;20.27;53.57
22649;BME280;11491;41.942;24.220;2023-05-20T09:48:44;90135.72;;;20.62;51.07
22649;BME280;11491;41.942;24.220;2023-05-20T09:51:12;90141.94;;;20.56;48.64
22649;BME280;11491;41.942;24.220;2023-05-20T09:53:39;90137.91;;;20.15;49.93
22649;BME280;11491;41.942;24.220;2023-05-20T09:56:07;90132.78;;;20.25;48.36
22649;BME280;11491;41.942;24.220;2023-05-20T09:58:35;90129.72;;;20.22;47.84
22649;BME280;11491;41.942;24.220;2023-05-20T10:01:04;90131.63;;;20.26;51.16
22649;BME280;11491;41.942;24.220;2023-05-20T10:03:31;90131.19;;;20.34;49.31
22649;BME280;11491;41.942;24.220;2023-05-20T10:06:23;90114.81;;;20.52;49.52
22649;BME280;11491;41.942;24.220;2023-05-20T10:09:00;90130.88;;;20.84;48.78
22649;BME280;11491;41.942;24.220;2023-05-20T10:11:35;90122.78;;;21.22;45.90
22649;BME280;11491;41.942;24.220;2023-05-20T10:14:18;90119.09;;;21.02;47.38
22649;BME280;11491;41.942;24.220;2023-05-20T10:16:54;90121.88;;;20.35;48.00
22649;BME280;11491;41.942;24.220;2023-05-20T10:19:27;90115.19;;;19.88;48.49
22649;BME280;11491;41.942;24.220;2023-05-20T10:21:59;90121.09;;;19.50;53.12
22649;BME280;11491;41.942;24.220;2023-05-20T10:24:30;90117.53;;;19.75;53.91
22649;BME280;11491;41.942;24.220;2023-05-20T10:27:00;90106.19;;;20.01;54.05
22649;BME280;11491;41.942;24.220;2023-05-20T10:29:29;90103.41;;;20.16;53.43
22649;BME280;11491;41.942;24.220;2023-05-20T10:32:07;90110.13;;;20.60;48.47
22649;BME280;11491;41.942;24.220;2023-05-20T10:34:44;90108.78;;;20.82;49.68
22649;BME280;11491;41.942;24.220;2023-05-20T10:37:21;90095.38;;;20.54;46.21
22649;BME280;11491;41.942;24.220;2023-05-20T10:39:49;90110.59;;;20.40;48.09
22649;BME280;11491;41.942;24.220;2023-05-20T10:42:15;90103.31;;;20.30;50.52
22649;BME280;11491;41.942;24.220;2023-05-20T10:44:54;90097.25;;;20.08;50.98
22649;BME280;11491;41.942;24.220;2023-05-20T10:47:20;90097.88;;;20.27;51.27
22649;BME280;11491;41.942;24.220;2023-05-20T10:49:47;90093.09;;;20.49;50.84
22649;BME280;11491;41.942;24.220;2023-05-20T10:52:15;90089.28;;;20.42;50.75
22649;BME280;11491;41.942;24.220;2023-05-20T10:54:43;90088.41;;;20.56;50.03
22649;BME280;11491;41.942;24.220;2023-05-20T10:57:10;90082.97;;;20.53;48.33
22649;BME280;11491;41.942;24.220;2023-05-20T10:59:37;90084.78;;;20.18;48.83
22649;BME280;11491;41.942;24.220;2023-05-20T11:02:05;90078.47;;;20.35;53.20
22649;BME280;11491;41.942;24.220;2023-05-20T11:04:33;90087.25;;;20.99;51.33
22649;BME280;11491;41.942;24.220;2023-05-20T11:07:00;90096.13;;;21.48;48.00
22649;BME280;11491;41.942;24.220;2023-05-20T11:09:27;90072.56;;;21.68;45.45
22649;BME280;11491;41.942;24.220;2023-05-20T11:11:55;90081.25;;;21.56;46.86
22649;BME280;11491;41.942;24.220;2023-05-20T11:14:22;90063.56;;;21.03;47.73
22649;BME280;11491;41.942;24.220;2023-05-20T11:16:52;90079.00;;;20.68;44.63
22649;BME280;11491;41.942;24.220;2023-05-20T11:19:21;90094.41;;;20.26;47.19
22649;BME280;11491;41.942;24.220;2023-05-20T11:21:48;90091.22;;;19.57;49.00
22649;BME280;11491;41.942;24.220;2023-05-20T11:24:23;90094.50;;;19.09;52.19
22649;BME280;11491;41.942;24.220;2023-05-20T11:26:51;90093.75;;;18.98;53.23
22649;BME280;11491;41.942;24.220;2023-05-20T11:29:18;90098.41;;;18.87;54.01
22649;BME280;11491;41.942;24.220;2023-05-20T11:31:47;90080.56;;;18.93;54.92
22649;BME280;11491;41.942;24.220;2023-05-20T11:34:14;90091.75;;;19.20;55.38
22649;BME280;11491;41.942;24.220;2023-05-20T11:36:42;90085.94;;;19.22;55.81
22649;BME280;11491;41.942;24.220;2023-05-20T11:39:09;90089.91;;;18.88;57.05
22649;BME280;11491;41.942;24.220;2023-05-20T11:41:35;90095.28;;;18.92;57.92
22649;BME280;11491;41.942;24.220;2023-05-20T11:44:03;90084.34;;;19.46;54.77
22649;BME280;11491;41.942;24.220;2023-05-20T11:46:30;90085.19;;;20.13;57.66
22649;BME280;11491;41.942;24.220;2023-05-20T11:48:57;90084.66;;;20.36;53.30
22649;BME280;11491;41.942;24.220;2023-05-20T11:51:26;90087.91;;;20.09;52.79
22649;BME280;11491;41.942;24.220;2023-05-20T11:53:58;90087.34;;;19.73;51.98
22649;BME280;11491;41.942;24.220;2023-05-20T11:56:27;90082.03;;;19.37;54.58
22649;BME280;11491;41.942;24.220;2023-05-20T11:58:55;90098.38;;;19.05;51.60
22649;BME280;11491;41.942;24.220;2023-05-20T12:01:22;90104.97;;;18.57;53.65
22649;BME280;11491;41.942;24.220;2023-05-20T12:03:49;90099.91;;;18.30;55.29
22649;BME280;11491;41.942;24.220;2023-05-20T12:06:16;90106.06;;;18.06;57.21
22649;BME280;11491;41.942;24.220;2023-05-20T12:08:43;90111.41;;;17.77;58.03
22649;BME280;11491;41.942;24.220;2023-05-20T12:11:11;90097.78;;;17.52;60.34
22649;BME280;11491;41.942;24.220;2023-05-20T12:13:38;90107.97;;;17.04;62.80
22649;BME280;11491;41.942;24.220;2023-05-20T12:16:05;90107.53;;;16.91;62.91
22649;BME280;11491;41.942;24.220;2023-05-20T12:18:32;90104.00;;;16.83;64.77
22649;BME280;11491;41.942;24.220;2023-05-20T12:20:59;90107.13;;;16.89;63.37
22649;BME280;11491;41.942;24.220;2023-05-20T12:23:27;90112.19;;;16.97;64.48
22649;BME280;11491;41.942;24.220;2023-05-20T12:25:58;90103.28;;;16.93;63.54
22649;BME280;11491;41.942;24.220;2023-05-20T12:28:26;90106.03;;;17.00;64.14
22649;BME280;11491;41.942;24.220;2023-05-20T12:30:53;90094.06;;;17.01;63.65
22649;BME280;11491;41.942;24.220;2023-05-20T12:33:20;90087.13;;;17.00;63.07
22649;BME280;11491;41.942;24.220;2023-05-20T12:35:46;90085.66;;;17.14;61.71
22649;BME280;11491;41.942;24.220;2023-05-20T12:38:13;90082.22;;;17.17;61.83
22649;BME280;11491;41.942;24.220;2023-05-20T12:40:40;90076.44;;;17.22;60.13
22649;BME280;11491;41.942;24.220;2023-05-20T12:43:07;90073.41;;;17.41;62.88
22649;BME280;11491;41.942;24.220;2023-05-20T12:45:35;90061.16;;;17.69;62.39
22649;BME280;11491;41.942;24.220;2023-05-20T12:48:03;90049.66;;;18.15;60.71
22649;BME280;11491;41.942;24.220;2023-05-20T12:50:30;90022.22;;;18.63;60.59
22649;BME280;11491;41.942;24.220;2023-05-20T12:52:57;90030.19;;;19.28;55.76
22649;BME280;11491;41.942;24.220;2023-05-20T12:55:23;90025.44;;;19.50;53.44
22649;BME280;11491;41.942;24.220;2023-05-20T12:57:50;90029.56;;;19.83;54.03